Nara Visa, New Mexico
Current Conditions -  °F | °C
As of 2:53 AM on Thursday 27 Nov 2014 (Local Time) from KTCC Reporting Station
Clear Clear  
Wind Chill: 27°   Ceiling: Unl
Heat Index: 27°   Visibility: 10mi
Dew Point: 23°   Wind: 0mph
Humidity: 85%   Direction: NA
Pressure: 30.39"   Gusts: NA
Location:  35.61°N, 103.1°W
Report Text: KTCC 270953Z AUTO 00000KT 10SM CLR M03/M05 A3039 RMK AO2 SLP291 T10281050
Loading
Personal Weather Stations






























Interactive Weather Map New forecast layout! Learn more

10-Day Weather Forecast

Advertisements
Track Severe Weather on mobile